Duncans Bridge, Missouri
Current Conditions -  °F | °C
As of 11:55 PM on Tuesday 25 Nov 2014 (Local Time) from KIRK Reporting Station
Clear Clear  
Wind Chill: -7°   Ceiling: Unl
Heat Index: -3°   Visibility: 10mi
Dew Point: -6°   Wind: 8mph
Humidity: 78%   Direction: 150°SSE
Pressure: 30.07"   Gusts: NA
Location:  39.735°N, 92.239°W
Report Text: KIRK 260555Z AUTO 15007KT 10SM CLR M03/M06 A3007 RMK AO2 SLP197 T10281061 11011 21050 400221067 58013
Loading
Personal Weather Stations






























Interactive Weather Map New forecast layout! Learn more

10-Day Weather Forecast

Advertisements
Track Severe Weather on mobile